sensor_id;sensor_type;location;lat;lon;timestamp;P1;durP1;ratioP1;P2;durP2;ratioP2
24799;SDS011;12897;50.812;4.430;2022-10-16T00:00:03;4.47;;;1.55;;
24799;SDS011;12897;50.812;4.430;2022-10-16T00:02:31;4.97;;;1.60;;
24799;SDS011;12897;50.812;4.430;2022-10-16T00:05:05;2.87;;;1.50;;
24799;SDS011;12897;50.812;4.430;2022-10-16T00:07:34;5.83;;;1.50;;
24799;SDS011;12897;50.812;4.430;2022-10-16T00:10:02;6.85;;;1.50;;
24799;SDS011;12897;50.812;4.430;2022-10-16T00:12:32;8.28;;;1.30;;
24799;SDS011;12897;50.812;4.430;2022-10-16T00:15:15;3.92;;;1.35;;
24799;SDS011;12897;50.812;4.430;2022-10-16T00:17:35;5.20;;;1.52;;
24799;SDS011;12897;50.812;4.430;2022-10-16T00:20:03;7.72;;;1.52;;
24799;SDS011;12897;50.812;4.430;2022-10-16T00:22:35;4.80;;;1.47;;
24799;SDS011;12897;50.812;4.430;2022-10-16T00:25:04;4.75;;;1.30;;
24799;SDS011;12897;50.812;4.430;2022-10-16T00:27:33;4.33;;;1.60;;
24799;SDS011;12897;50.812;4.430;2022-10-16T00:30:02;6.85;;;1.20;;
24799;SDS011;12897;50.812;4.430;2022-10-16T00:32:34;3.00;;;1.30;;
24799;SDS011;12897;50.812;4.430;2022-10-16T00:35:05;2.72;;;1.42;;
24799;SDS011;12897;50.812;4.430;2022-10-16T00:37:36;5.15;;;1.30;;
24799;SDS011;12897;50.812;4.430;2022-10-16T00:40:07;2.90;;;1.60;;
24799;SDS011;12897;50.812;4.430;2022-10-16T00:42:35;8.43;;;1.57;;
24799;SDS011;12897;50.812;4.430;2022-10-16T00:45:11;4.37;;;1.60;;
24799;SDS011;12897;50.812;4.430;2022-10-16T00:47:48;7.87;;;1.65;;
24799;SDS011;12897;50.812;4.430;2022-10-16T00:50:24;4.30;;;1.37;;
24799;SDS011;12897;50.812;4.430;2022-10-16T00:58:10;7.65;;;2.80;;
24799;SDS011;12897;50.812;4.430;2022-10-16T01:00:42;5.67;;;1.55;;
24799;SDS011;12897;50.812;4.430;2022-10-16T01:11:53;3.75;;;1.42;;
24799;SDS011;12897;50.812;4.430;2022-10-16T01:14:37;4.17;;;1.42;;
24799;SDS011;12897;50.812;4.430;2022-10-16T01:17:02;10.53;;;1.40;;
24799;SDS011;12897;50.812;4.430;2022-10-16T01:22:17;4.25;;;1.65;;
24799;SDS011;12897;50.812;4.430;2022-10-16T01:24:52;9.38;;;1.77;;
24799;SDS011;12897;50.812;4.430;2022-10-16T01:30:17;5.03;;;1.50;;
24799;SDS011;12897;50.812;4.430;2022-10-16T01:32:58;2.10;;;1.45;;
24799;SDS011;12897;50.812;4.430;2022-10-16T01:35:34;7.40;;;1.90;;
24799;SDS011;12897;50.812;4.430;2022-10-16T01:41:06;3.37;;;2.10;;
24799;SDS011;12897;50.812;4.430;2022-10-16T01:43:42;6.30;;;1.55;;
24799;SDS011;12897;50.812;4.430;2022-10-16T01:48:49;2.50;;;1.57;;
24799;SDS011;12897;50.812;4.430;2022-10-16T01:51:18;5.37;;;1.90;;
24799;SDS011;12897;50.812;4.430;2022-10-16T01:53:48;1.90;;;1.50;;
24799;SDS011;12897;50.812;4.430;2022-10-16T01:56:19;6.00;;;1.50;;
24799;SDS011;12897;50.812;4.430;2022-10-16T01:58:51;5.50;;;1.62;;
24799;SDS011;12897;50.812;4.430;2022-10-16T02:01:23;4.70;;;1.40;;
24799;SDS011;12897;50.812;4.430;2022-10-16T02:03:55;3.87;;;1.45;;
24799;SDS011;12897;50.812;4.430;2022-10-16T02:06:32;5.62;;;1.90;;
24799;SDS011;12897;50.812;4.430;2022-10-16T02:09:13;4.20;;;1.62;;
24799;SDS011;12897;50.812;4.430;2022-10-16T02:14:24;3.08;;;1.52;;
24799;SDS011;12897;50.812;4.430;2022-10-16T02:19:37;5.42;;;1.72;;
24799;SDS011;12897;50.812;4.430;2022-10-16T02:22:05;6.35;;;1.70;;
24799;SDS011;12897;50.812;4.430;2022-10-16T02:25:12;5.78;;;1.95;;
24799;SDS011;12897;50.812;4.430;2022-10-16T02:33:13;6.12;;;1.80;;
24799;SDS011;12897;50.812;4.430;2022-10-16T02:35:47;4.53;;;2.30;;
24799;SDS011;12897;50.812;4.430;2022-10-16T02:38:16;3.85;;;1.90;;
24799;SDS011;12897;50.812;4.430;2022-10-16T02:40:45;5.60;;;1.75;;
24799;SDS011;12897;50.812;4.430;2022-10-16T02:43:18;11.30;;;2.20;;
24799;SDS011;12897;50.812;4.430;2022-10-16T02:45:57;7.92;;;1.98;;
24799;SDS011;12897;50.812;4.430;2022-10-16T02:48:43;7.05;;;2.10;;
24799;SDS011;12897;50.812;4.430;2022-10-16T02:51:08;3.77;;;2.60;;
24799;SDS011;12897;50.812;4.430;2022-10-16T02:53:47;5.62;;;2.02;;
24799;SDS011;12897;50.812;4.430;2022-10-16T02:56:30;2.67;;;2.20;;
24799;SDS011;12897;50.812;4.430;2022-10-16T02:59:12;7.03;;;2.27;;
24799;SDS011;12897;50.812;4.430;2022-10-16T03:01:39;9.88;;;3.27;;
24799;SDS011;12897;50.812;4.430;2022-10-16T03:04:16;7.25;;;2.47;;
24799;SDS011;12897;50.812;4.430;2022-10-16T03:06:55;6.67;;;2.35;;
24799;SDS011;12897;50.812;4.430;2022-10-16T03:09:31;9.23;;;2.35;;
24799;SDS011;12897;50.812;4.430;2022-10-16T03:12:09;4.28;;;1.98;;
24799;SDS011;12897;50.812;4.430;2022-10-16T03:14:47;6.78;;;2.00;;
24799;SDS011;12897;50.812;4.430;2022-10-16T03:19:56;6.17;;;2.27;;
24799;SDS011;12897;50.812;4.430;2022-10-16T03:22:34;6.62;;;1.95;;
24799;SDS011;12897;50.812;4.430;2022-10-16T03:25:22;7.67;;;2.47;;
24799;SDS011;12897;50.812;4.430;2022-10-16T03:28:03;3.77;;;2.22;;
24799;SDS011;12897;50.812;4.430;2022-10-16T03:30:32;5.50;;;2.52;;
24799;SDS011;12897;50.812;4.430;2022-10-16T03:33:08;7.30;;;2.30;;
24799;SDS011;12897;50.812;4.430;2022-10-16T03:36:13;6.67;;;2.17;;
24799;SDS011;12897;50.812;4.430;2022-10-16T03:38:24;5.67;;;2.33;;
24799;SDS011;12897;50.812;4.430;2022-10-16T03:40:58;5.65;;;2.37;;
24799;SDS011;12897;50.812;4.430;2022-10-16T03:43:51;4.70;;;2.20;;
24799;SDS011;12897;50.812;4.430;2022-10-16T03:46:20;7.73;;;2.67;;
24799;SDS011;12897;50.812;4.430;2022-10-16T03:48:54;10.58;;;1.98;;
24799;SDS011;12897;50.812;4.430;2022-10-16T03:51:28;4.10;;;2.10;;
24799;SDS011;12897;50.812;4.430;2022-10-16T03:54:10;6.30;;;2.45;;
24799;SDS011;12897;50.812;4.430;2022-10-16T03:56:45;9.18;;;2.42;;
24799;SDS011;12897;50.812;4.430;2022-10-16T03:59:21;8.25;;;2.30;;
24799;SDS011;12897;50.812;4.430;2022-10-16T04:01:59;8.08;;;2.58;;
24799;SDS011;12897;50.812;4.430;2022-10-16T04:04:36;7.62;;;2.12;;
24799;SDS011;12897;50.812;4.430;2022-10-16T04:07:16;5.62;;;2.70;;
24799;SDS011;12897;50.812;4.430;2022-10-16T04:09:39;8.35;;;2.65;;
24799;SDS011;12897;50.812;4.430;2022-10-16T04:12:12;6.80;;;2.50;;
24799;SDS011;12897;50.812;4.430;2022-10-16T04:14:46;7.22;;;2.12;;
24799;SDS011;12897;50.812;4.430;2022-10-16T04:17:14;6.10;;;2.00;;
24799;SDS011;12897;50.812;4.430;2022-10-16T04:19:51;7.60;;;2.52;;
24799;SDS011;12897;50.812;4.430;2022-10-16T04:22:15;4.28;;;2.33;;
24799;SDS011;12897;50.812;4.430;2022-10-16T04:24:44;8.13;;;2.05;;
24799;SDS011;12897;50.812;4.430;2022-10-16T04:27:14;6.83;;;2.10;;
24799;SDS011;12897;50.812;4.430;2022-10-16T04:29:44;10.50;;;2.67;;
24799;SDS011;12897;50.812;4.430;2022-10-16T04:34:46;14.47;;;2.35;;
24799;SDS011;12897;50.812;4.430;2022-10-16T04:37:18;7.78;;;2.30;;
24799;SDS011;12897;50.812;4.430;2022-10-16T04:39:42;6.00;;;2.10;;
24799;SDS011;12897;50.812;4.430;2022-10-16T04:42:10;9.35;;;2.20;;
24799;SDS011;12897;50.812;4.430;2022-10-16T04:44:38;5.62;;;2.22;;
24799;SDS011;12897;50.812;4.430;2022-10-16T04:47:06;4.50;;;2.27;;
24799;SDS011;12897;50.812;4.430;2022-10-16T04:49:35;3.95;;;2.47;;
24799;SDS011;12897;50.812;4.430;2022-10-16T04:52:05;9.80;;;2.62;;
24799;SDS011;12897;50.812;4.430;2022-10-16T04:54:33;6.50;;;2.58;;
24799;SDS011;12897;50.812;4.430;2022-10-16T04:57:07;7.15;;;2.05;;
24799;SDS011;12897;50.812;4.430;2022-10-16T04:59:44;6.95;;;2.05;;
24799;SDS011;12897;50.812;4.430;2022-10-16T05:02:27;7.00;;;2.62;;
24799;SDS011;12897;50.812;4.430;2022-10-16T05:05:00;8.83;;;2.67;;
24799;SDS011;12897;50.812;4.430;2022-10-16T05:10:18;12.82;;;2.80;;
24799;SDS011;12897;50.812;4.430;2022-10-16T05:12:48;7.47;;;2.40;;
24799;SDS011;12897;50.812;4.430;2022-10-16T05:21:28;6.25;;;2.77;;
24799;SDS011;12897;50.812;4.430;2022-10-16T05:24:05;10.65;;;2.35;;
24799;SDS011;12897;50.812;4.430;2022-10-16T05:26:34;5.58;;;2.50;;
24799;SDS011;12897;50.812;4.430;2022-10-16T05:29:02;6.53;;;2.45;;
24799;SDS011;12897;50.812;4.430;2022-10-16T05:31:40;5.33;;;2.80;;
24799;SDS011;12897;50.812;4.430;2022-10-16T05:34:13;4.90;;;3.00;;
24799;SDS011;12897;50.812;4.430;2022-10-16T05:36:37;4.35;;;2.50;;
24799;SDS011;12897;50.812;4.430;2022-10-16T05:39:07;8.53;;;2.70;;
24799;SDS011;12897;50.812;4.430;2022-10-16T05:41:38;6.80;;;2.65;;
24799;SDS011;12897;50.812;4.430;2022-10-16T05:44:06;7.90;;;2.85;;
24799;SDS011;12897;50.812;4.430;2022-10-16T05:46:34;8.25;;;2.83;;
24799;SDS011;12897;50.812;4.430;2022-10-16T05:49:02;7.40;;;2.90;;
24799;SDS011;12897;50.812;4.430;2022-10-16T05:51:39;6.65;;;3.02;;
24799;SDS011;12897;50.812;4.430;2022-10-16T05:54:12;9.63;;;2.67;;
24799;SDS011;12897;50.812;4.430;2022-10-16T05:56:41;6.53;;;2.87;;
24799;SDS011;12897;50.812;4.430;2022-10-16T05:59:05;8.68;;;2.75;;
24799;SDS011;12897;50.812;4.430;2022-10-16T06:01:38;7.40;;;3.00;;
24799;SDS011;12897;50.812;4.430;2022-10-16T06:04:06;8.43;;;3.50;;
24799;SDS011;12897;50.812;4.430;2022-10-16T06:09:03;12.00;;;2.90;;
24799;SDS011;12897;50.812;4.430;2022-10-16T06:11:34;10.75;;;2.98;;
24799;SDS011;12897;50.812;4.430;2022-10-16T06:14:02;9.73;;;3.60;;
24799;SDS011;12897;50.812;4.430;2022-10-16T06:16:33;13.53;;;3.08;;
24799;SDS011;12897;50.812;4.430;2022-10-16T06:19:05;6.25;;;2.87;;
24799;SDS011;12897;50.812;4.430;2022-10-16T06:21:37;8.98;;;3.22;;
24799;SDS011;12897;50.812;4.430;2022-10-16T06:24:09;10.30;;;3.62;;
24799;SDS011;12897;50.812;4.430;2022-10-16T06:26:39;11.20;;;3.50;;
24799;SDS011;12897;50.812;4.430;2022-10-16T06:29:22;8.58;;;3.00;;
24799;SDS011;12897;50.812;4.430;2022-10-16T06:31:39;5.80;;;3.02;;
24799;SDS011;12897;50.812;4.430;2022-10-16T06:34:12;9.05;;;4.00;;
24799;SDS011;12897;50.812;4.430;2022-10-16T06:36:48;6.70;;;2.95;;
24799;SDS011;12897;50.812;4.430;2022-10-16T06:39:32;8.33;;;3.00;;
24799;SDS011;12897;50.812;4.430;2022-10-16T06:42:07;12.58;;;3.27;;
24799;SDS011;12897;50.812;4.430;2022-10-16T06:44:37;7.60;;;3.15;;
24799;SDS011;12897;50.812;4.430;2022-10-16T06:47:08;5.72;;;2.85;;
24799;SDS011;12897;50.812;4.430;2022-10-16T06:49:37;8.20;;;2.62;;
24799;SDS011;12897;50.812;4.430;2022-10-16T06:52:09;7.13;;;3.23;;
24799;SDS011;12897;50.812;4.430;2022-10-16T06:54:37;8.58;;;2.60;;
24799;SDS011;12897;50.812;4.430;2022-10-16T06:59:34;11.12;;;2.50;;
24799;SDS011;12897;50.812;4.430;2022-10-16T07:02:03;6.17;;;2.27;;
24799;SDS011;12897;50.812;4.430;2022-10-16T07:04:37;6.03;;;2.50;;
24799;SDS011;12897;50.812;4.430;2022-10-16T07:07:08;5.33;;;2.33;;
24799;SDS011;12897;50.812;4.430;2022-10-16T07:09:38;11.53;;;2.52;;
24799;SDS011;12897;50.812;4.430;2022-10-16T07:12:09;9.40;;;2.37;;
24799;SDS011;12897;50.812;4.430;2022-10-16T07:14:39;8.18;;;2.75;;
24799;SDS011;12897;50.812;4.430;2022-10-16T07:17:16;11.35;;;2.70;;
24799;SDS011;12897;50.812;4.430;2022-10-16T07:19:44;6.25;;;2.70;;
24799;SDS011;12897;50.812;4.430;2022-10-16T07:22:12;6.78;;;2.27;;
24799;SDS011;12897;50.812;4.430;2022-10-16T07:24:41;9.13;;;2.72;;
24799;SDS011;12897;50.812;4.430;2022-10-16T07:27:13;6.03;;;2.37;;
24799;SDS011;12897;50.812;4.430;2022-10-16T07:29:44;9.53;;;2.60;;
24799;SDS011;12897;50.812;4.430;2022-10-16T07:32:13;6.30;;;2.00;;
24799;SDS011;12897;50.812;4.430;2022-10-16T07:34:43;5.75;;;2.40;;
24799;SDS011;12897;50.812;4.430;2022-10-16T07:37:12;6.67;;;2.33;;
24799;SDS011;12897;50.812;4.430;2022-10-16T07:39:42;7.75;;;1.98;;
24799;SDS011;12897;50.812;4.430;2022-10-16T07:42:14;7.83;;;2.17;;
24799;SDS011;12897;50.812;4.430;2022-10-16T07:44:43;5.70;;;2.27;;
24799;SDS011;12897;50.812;4.430;2022-10-16T07:47:12;7.67;;;2.90;;
24799;SDS011;12897;50.812;4.430;2022-10-16T07:52:14;12.75;;;2.37;;
24799;SDS011;12897;50.812;4.430;2022-10-16T07:54:43;16.93;;;2.33;;
24799;SDS011;12897;50.812;4.430;2022-10-16T07:57:13;8.47;;;2.43;;
24799;SDS011;12897;50.812;4.430;2022-10-16T07:59:49;11.40;;;2.15;;
24799;SDS011;12897;50.812;4.430;2022-10-16T08:02:21;9.05;;;2.33;;
24799;SDS011;12897;50.812;4.430;2022-10-16T08:04:49;13.98;;;2.27;;
24799;SDS011;12897;50.812;4.430;2022-10-16T08:07:21;8.53;;;2.00;;
24799;SDS011;12897;50.812;4.430;2022-10-16T08:09:51;10.43;;;1.90;;
24799;SDS011;12897;50.812;4.430;2022-10-16T08:12:19;8.55;;;2.10;;
24799;SDS011;12897;50.812;4.430;2022-10-16T08:14:48;6.25;;;2.15;;
24799;SDS011;12897;50.812;4.430;2022-10-16T08:17:16;5.05;;;1.82;;
24799;SDS011;12897;50.812;4.430;2022-10-16T08:22:32;4.67;;;2.10;;
24799;SDS011;12897;50.812;4.430;2022-10-16T08:24:59;6.03;;;1.75;;
24799;SDS011;12897;50.812;4.430;2022-10-16T08:27:33;5.78;;;2.00;;
24799;SDS011;12897;50.812;4.430;2022-10-16T08:30:05;7.65;;;2.15;;
24799;SDS011;12897;50.812;4.430;2022-10-16T08:32:33;6.10;;;2.00;;
24799;SDS011;12897;50.812;4.430;2022-10-16T08:35:10;8.05;;;2.50;;
24799;SDS011;12897;50.812;4.430;2022-10-16T08:40:41;10.90;;;2.80;;
24799;SDS011;12897;50.812;4.430;2022-10-16T08:48:51;15.75;;;2.65;;
24799;SDS011;12897;50.812;4.430;2022-10-16T08:51:24;8.60;;;2.02;;
24799;SDS011;12897;50.812;4.430;2022-10-16T08:54:03;10.72;;;1.80;;
24799;SDS011;12897;50.812;4.430;2022-10-16T08:56:35;10.93;;;1.95;;
24799;SDS011;12897;50.812;4.430;2022-10-16T08:59:03;8.90;;;1.87;;
24799;SDS011;12897;50.812;4.430;2022-10-16T09:01:40;8.80;;;1.90;;
24799;SDS011;12897;50.812;4.430;2022-10-16T09:12:19;8.80;;;1.98;;
24799;SDS011;12897;50.812;4.430;2022-10-16T09:21:01;9.78;;;1.80;;
24799;SDS011;12897;50.812;4.430;2022-10-16T09:23:37;10.20;;;2.10;;
24799;SDS011;12897;50.812;4.430;2022-10-16T09:26:13;7.10;;;1.85;;
24799;SDS011;12897;50.812;4.430;2022-10-16T09:28:44;11.95;;;1.77;;
24799;SDS011;12897;50.812;4.430;2022-10-16T09:31:17;7.17;;;1.90;;
24799;SDS011;12897;50.812;4.430;2022-10-16T09:33:48;9.80;;;1.75;;
24799;SDS011;12897;50.812;4.430;2022-10-16T09:36:23;6.80;;;1.92;;
24799;SDS011;12897;50.812;4.430;2022-10-16T09:39:09;9.05;;;2.30;;
24799;SDS011;12897;50.812;4.430;2022-10-16T09:41:52;9.23;;;2.50;;
24799;SDS011;12897;50.812;4.430;2022-10-16T09:49:53;8.80;;;1.98;;
24799;SDS011;12897;50.812;4.430;2022-10-16T09:52:33;13.48;;;2.17;;
24799;SDS011;12897;50.812;4.430;2022-10-16T09:55:12;14.45;;;2.00;;
24799;SDS011;12897;50.812;4.430;2022-10-16T09:57:52;8.60;;;1.77;;
24799;SDS011;12897;50.812;4.430;2022-10-16T10:00:28;8.05;;;2.00;;
24799;SDS011;12897;50.812;4.430;2022-10-16T10:02:59;8.50;;;2.10;;
24799;SDS011;12897;50.812;4.430;2022-10-16T10:05:27;8.18;;;1.52;;
24799;SDS011;12897;50.812;4.430;2022-10-16T10:08:06;9.00;;;1.70;;
24799;SDS011;12897;50.812;4.430;2022-10-16T10:10:41;12.43;;;2.33;;
24799;SDS011;12897;50.812;4.430;2022-10-16T10:13:23;9.35;;;1.77;;
24799;SDS011;12897;50.812;4.430;2022-10-16T10:16:01;6.28;;;1.77;;
24799;SDS011;12897;50.812;4.430;2022-10-16T10:18:24;5.53;;;1.50;;
24799;SDS011;12897;50.812;4.430;2022-10-16T10:21:03;9.98;;;1.90;;
24799;SDS011;12897;50.812;4.430;2022-10-16T10:23:33;10.95;;;1.80;;
24799;SDS011;12897;50.812;4.430;2022-10-16T10:26:08;8.93;;;1.98;;
24799;SDS011;12897;50.812;4.430;2022-10-16T10:32:05;7.47;;;1.90;;
24799;SDS011;12897;50.812;4.430;2022-10-16T10:49:19;9.95;;;2.15;;
24799;SDS011;12897;50.812;4.430;2022-10-16T10:54:56;7.22;;;1.72;;
24799;SDS011;12897;50.812;4.430;2022-10-16T10:57:43;6.87;;;1.45;;
24799;SDS011;12897;50.812;4.430;2022-10-16T11:05:51;6.58;;;1.60;;
24799;SDS011;12897;50.812;4.430;2022-10-16T11:08:43;5.87;;;2.25;;
24799;SDS011;12897;50.812;4.430;2022-10-16T11:11:23;7.55;;;1.67;;
24799;SDS011;12897;50.812;4.430;2022-10-16T11:13:57;9.73;;;1.67;;
24799;SDS011;12897;50.812;4.430;2022-10-16T11:16:35;7.55;;;1.80;;
24799;SDS011;12897;50.812;4.430;2022-10-16T11:30:12;5.35;;;1.42;;
24799;SDS011;12897;50.812;4.430;2022-10-16T11:32:47;6.75;;;1.30;;
24799;SDS011;12897;50.812;4.430;2022-10-16T11:35:24;3.80;;;1.30;;
24799;SDS011;12897;50.812;4.430;2022-10-16T11:38:12;7.05;;;1.32;;
24799;SDS011;12897;50.812;4.430;2022-10-16T11:40:42;5.17;;;1.30;;
24799;SDS011;12897;50.812;4.430;2022-10-16T11:43:15;5.05;;;1.20;;
24799;SDS011;12897;50.812;4.430;2022-10-16T11:45:49;5.90;;;1.87;;
24799;SDS011;12897;50.812;4.430;2022-10-16T11:51:29;4.08;;;1.20;;
24799;SDS011;12897;50.812;4.430;2022-10-16T11:53:57;9.83;;;1.50;;
24799;SDS011;12897;50.812;4.430;2022-10-16T11:56:30;5.15;;;1.20;;
24799;SDS011;12897;50.812;4.430;2022-10-16T12:04:31;4.80;;;1.82;;
24799;SDS011;12897;50.812;4.430;2022-10-16T12:07:09;5.17;;;1.40;;
24799;SDS011;12897;50.812;4.430;2022-10-16T12:09:38;6.08;;;1.60;;
24799;SDS011;12897;50.812;4.430;2022-10-16T12:15:03;4.90;;;1.70;;
24799;SDS011;12897;50.812;4.430;2022-10-16T12:20:32;5.15;;;1.35;;
24799;SDS011;12897;50.812;4.430;2022-10-16T12:23:07;2.97;;;1.27;;
24799;SDS011;12897;50.812;4.430;2022-10-16T12:25:32;2.87;;;1.10;;
24799;SDS011;12897;50.812;4.430;2022-10-16T12:28:06;11.35;;;1.37;;
24799;SDS011;12897;50.812;4.430;2022-10-16T12:30:59;5.35;;;1.30;;
24799;SDS011;12897;50.812;4.430;2022-10-16T12:33:42;7.17;;;1.42;;
24799;SDS011;12897;50.812;4.430;2022-10-16T12:36:15;8.50;;;1.77;;
24799;SDS011;12897;50.812;4.430;2022-10-16T12:38:50;5.90;;;1.32;;
24799;SDS011;12897;50.812;4.430;2022-10-16T12:41:35;6.17;;;1.47;;
24799;SDS011;12897;50.812;4.430;2022-10-16T12:44:05;9.68;;;1.40;;
24799;SDS011;12897;50.812;4.430;2022-10-16T12:46:38;7.55;;;1.45;;
24799;SDS011;12897;50.812;4.430;2022-10-16T12:49:17;4.10;;;1.50;;
24799;SDS011;12897;50.812;4.430;2022-10-16T12:51:44;6.22;;;1.75;;
24799;SDS011;12897;50.812;4.430;2022-10-16T12:59:52;5.08;;;1.37;;
24799;SDS011;12897;50.812;4.430;2022-10-16T13:08:01;6.12;;;1.52;;
24799;SDS011;12897;50.812;4.430;2022-10-16T13:11:03;11.35;;;3.02;;
24799;SDS011;12897;50.812;4.430;2022-10-16T13:13:51;3.98;;;1.40;;
24799;SDS011;12897;50.812;4.430;2022-10-16T13:19:34;6.62;;;1.57;;
24799;SDS011;12897;50.812;4.430;2022-10-16T13:22:14;6.70;;;1.60;;
24799;SDS011;12897;50.812;4.430;2022-10-16T13:25:02;5.42;;;1.52;;
24799;SDS011;12897;50.812;4.430;2022-10-16T13:27:54;5.15;;;1.42;;
24799;SDS011;12897;50.812;4.430;2022-10-16T13:30:38;6.00;;;1.62;;
24799;SDS011;12897;50.812;4.430;2022-10-16T13:35:55;4.37;;;1.55;;
24799;SDS011;12897;50.812;4.430;2022-10-16T13:38:25;9.80;;;1.87;;
24799;SDS011;12897;50.812;4.430;2022-10-16T13:40:54;5.90;;;1.42;;
24799;SDS011;12897;50.812;4.430;2022-10-16T13:43:33;9.35;;;1.50;;
24799;SDS011;12897;50.812;4.430;2022-10-16T13:51:36;7.33;;;1.50;;
24799;SDS011;12897;50.812;4.430;2022-10-16T13:54:05;5.83;;;1.50;;
24799;SDS011;12897;50.812;4.430;2022-10-16T13:56:36;4.95;;;1.65;;
24799;SDS011;12897;50.812;4.430;2022-10-16T13:59:06;6.28;;;1.27;;
24799;SDS011;12897;50.812;4.430;2022-10-16T14:01:42;8.43;;;1.35;;
24799;SDS011;12897;50.812;4.430;2022-10-16T14:04:09;5.87;;;1.47;;
24799;SDS011;12897;50.812;4.430;2022-10-16T14:06:43;7.03;;;1.65;;
24799;SDS011;12897;50.812;4.430;2022-10-16T14:09:23;12.23;;;2.00;;
24799;SDS011;12897;50.812;4.430;2022-10-16T14:11:57;10.32;;;1.92;;
24799;SDS011;12897;50.812;4.430;2022-10-16T14:14:24;7.70;;;1.70;;
24799;SDS011;12897;50.812;4.430;2022-10-16T14:16:53;5.72;;;1.50;;
24799;SDS011;12897;50.812;4.430;2022-10-16T14:19:27;5.65;;;1.50;;
24799;SDS011;12897;50.812;4.430;2022-10-16T14:21:56;8.18;;;1.25;;
24799;SDS011;12897;50.812;4.430;2022-10-16T14:24:30;7.90;;;1.67;;
24799;SDS011;12897;50.812;4.430;2022-10-16T14:27:00;6.58;;;1.60;;
24799;SDS011;12897;50.812;4.430;2022-10-16T14:29:30;9.63;;;2.10;;
24799;SDS011;12897;50.812;4.430;2022-10-16T14:32:00;7.60;;;1.70;;
24799;SDS011;12897;50.812;4.430;2022-10-16T14:34:30;10.08;;;2.15;;
24799;SDS011;12897;50.812;4.430;2022-10-16T14:37:28;6.40;;;2.08;;
24799;SDS011;12897;50.812;4.430;2022-10-16T14:39:59;10.25;;;1.85;;
24799;SDS011;12897;50.812;4.430;2022-10-16T14:42:29;8.13;;;2.02;;
24799;SDS011;12897;50.812;4.430;2022-10-16T14:44:56;6.70;;;1.57;;
24799;SDS011;12897;50.812;4.430;2022-10-16T14:47:25;5.33;;;1.60;;
24799;SDS011;12897;50.812;4.430;2022-10-16T14:49:53;6.62;;;1.87;;
24799;SDS011;12897;50.812;4.430;2022-10-16T14:52:23;7.45;;;1.70;;
24799;SDS011;12897;50.812;4.430;2022-10-16T14:54:51;6.78;;;1.80;;
24799;SDS011;12897;50.812;4.430;2022-10-16T14:57:23;9.60;;;2.10;;
24799;SDS011;12897;50.812;4.430;2022-10-16T14:59:53;17.02;;;2.37;;
24799;SDS011;12897;50.812;4.430;2022-10-16T15:02:27;9.23;;;2.05;;
24799;SDS011;12897;50.812;4.430;2022-10-16T15:05:02;9.48;;;2.08;;
24799;SDS011;12897;50.812;4.430;2022-10-16T15:07:26;11.83;;;1.98;;
24799;SDS011;12897;50.812;4.430;2022-10-16T15:09:56;9.85;;;2.50;;
24799;SDS011;12897;50.812;4.430;2022-10-16T15:12:24;13.60;;;1.90;;
24799;SDS011;12897;50.812;4.430;2022-10-16T15:14:51;8.88;;;2.37;;
24799;SDS011;12897;50.812;4.430;2022-10-16T15:17:19;8.98;;;2.12;;
24799;SDS011;12897;50.812;4.430;2022-10-16T15:19:48;12.43;;;2.00;;
24799;SDS011;12897;50.812;4.430;2022-10-16T15:22:18;7.22;;;2.00;;
24799;SDS011;12897;50.812;4.430;2022-10-16T15:24:47;8.83;;;1.62;;
24799;SDS011;12897;50.812;4.430;2022-10-16T15:27:15;11.33;;;2.00;;
24799;SDS011;12897;50.812;4.430;2022-10-16T15:29:44;12.20;;;2.33;;
24799;SDS011;12897;50.812;4.430;2022-10-16T15:32:11;6.55;;;2.05;;
24799;SDS011;12897;50.812;4.430;2022-10-16T15:34:40;9.83;;;2.50;;
24799;SDS011;12897;50.812;4.430;2022-10-16T15:37:08;9.60;;;3.80;;
24799;SDS011;12897;50.812;4.430;2022-10-16T15:39:38;9.58;;;3.05;;
24799;SDS011;12897;50.812;4.430;2022-10-16T15:42:06;13.28;;;3.05;;
24799;SDS011;12897;50.812;4.430;2022-10-16T15:44:39;11.90;;;3.62;;
24799;SDS011;12897;50.812;4.430;2022-10-16T15:47:04;12.93;;;3.02;;
24799;SDS011;12897;50.812;4.430;2022-10-16T15:49:33;11.90;;;2.47;;
24799;SDS011;12897;50.812;4.430;2022-10-16T15:52:03;11.00;;;3.90;;
24799;SDS011;12897;50.812;4.430;2022-10-16T15:54:31;14.58;;;3.92;;
24799;SDS011;12897;50.812;4.430;2022-10-16T15:57:01;15.75;;;4.50;;
24799;SDS011;12897;50.812;4.430;2022-10-16T15:59:30;33.83;;;12.98;;
24799;SDS011;12897;50.812;4.430;2022-10-16T16:01:58;29.60;;;11.68;;
24799;SDS011;12897;50.812;4.430;2022-10-16T16:04:29;23.12;;;5.28;;
24799;SDS011;12897;50.812;4.430;2022-10-16T16:06:59;19.80;;;8.08;;
24799;SDS011;12897;50.812;4.430;2022-10-16T16:09:30;14.47;;;5.00;;
24799;SDS011;12897;50.812;4.430;2022-10-16T16:12:11;11.68;;;2.90;;
24799;SDS011;12897;50.812;4.430;2022-10-16T16:14:46;11.93;;;2.90;;
24799;SDS011;12897;50.812;4.430;2022-10-16T16:17:16;14.87;;;3.35;;
24799;SDS011;12897;50.812;4.430;2022-10-16T16:19:53;13.53;;;2.95;;
24799;SDS011;12897;50.812;4.430;2022-10-16T16:22:31;16.07;;;3.75;;
24799;SDS011;12897;50.812;4.430;2022-10-16T16:24:53;12.78;;;4.12;;
24799;SDS011;12897;50.812;4.430;2022-10-16T16:27:30;9.85;;;4.12;;
24799;SDS011;12897;50.812;4.430;2022-10-16T16:30:02;20.05;;;3.55;;
24799;SDS011;12897;50.812;4.430;2022-10-16T16:32:34;11.12;;;4.10;;
24799;SDS011;12897;50.812;4.430;2022-10-16T16:35:26;14.33;;;4.47;;
24799;SDS011;12897;50.812;4.430;2022-10-16T16:37:55;12.63;;;3.50;;
24799;SDS011;12897;50.812;4.430;2022-10-16T16:40:27;15.98;;;4.20;;
24799;SDS011;12897;50.812;4.430;2022-10-16T16:42:58;9.35;;;3.77;;
24799;SDS011;12897;50.812;4.430;2022-10-16T16:45:29;14.78;;;3.12;;
24799;SDS011;12897;50.812;4.430;2022-10-16T16:48:05;13.00;;;2.92;;
24799;SDS011;12897;50.812;4.430;2022-10-16T16:50:42;17.05;;;3.35;;
24799;SDS011;12897;50.812;4.430;2022-10-16T16:53:10;13.55;;;3.42;;
24799;SDS011;12897;50.812;4.430;2022-10-16T16:56:00;13.75;;;3.40;;
24799;SDS011;12897;50.812;4.430;2022-10-16T16:58:18;11.08;;;3.00;;
24799;SDS011;12897;50.812;4.430;2022-10-16T17:00:54;18.57;;;4.20;;
24799;SDS011;12897;50.812;4.430;2022-10-16T17:03:28;24.23;;;6.65;;
24799;SDS011;12897;50.812;4.430;2022-10-16T17:06:07;13.68;;;5.60;;
24799;SDS011;12897;50.812;4.430;2022-10-16T17:08:41;19.17;;;6.92;;
24799;SDS011;12897;50.812;4.430;2022-10-16T17:11:18;22.40;;;8.80;;
24799;SDS011;12897;50.812;4.430;2022-10-16T17:13:48;27.65;;;6.97;;
24799;SDS011;12897;50.812;4.430;2022-10-16T17:21:18;12.75;;;5.22;;
24799;SDS011;12897;50.812;4.430;2022-10-16T17:23:51;14.03;;;5.70;;
24799;SDS011;12897;50.812;4.430;2022-10-16T17:26:29;18.12;;;6.00;;
24799;SDS011;12897;50.812;4.430;2022-10-16T17:28:57;15.63;;;5.72;;
24799;SDS011;12897;50.812;4.430;2022-10-16T17:31:33;22.50;;;6.67;;
24799;SDS011;12897;50.812;4.430;2022-10-16T17:34:07;20.92;;;5.50;;
24799;SDS011;12897;50.812;4.430;2022-10-16T17:36:38;15.98;;;7.08;;
24799;SDS011;12897;50.812;4.430;2022-10-16T17:39:16;18.10;;;6.87;;
24799;SDS011;12897;50.812;4.430;2022-10-16T17:42:01;26.65;;;13.65;;
24799;SDS011;12897;50.812;4.430;2022-10-16T17:44:33;30.40;;;14.00;;
24799;SDS011;12897;50.812;4.430;2022-10-16T17:47:07;33.18;;;17.10;;
24799;SDS011;12897;50.812;4.430;2022-10-16T17:49:37;32.23;;;18.48;;
24799;SDS011;12897;50.812;4.430;2022-10-16T17:52:10;25.57;;;13.32;;
24799;SDS011;12897;50.812;4.430;2022-10-16T17:54:38;36.42;;;13.65;;
24799;SDS011;12897;50.812;4.430;2022-10-16T17:57:10;35.92;;;12.93;;
24799;SDS011;12897;50.812;4.430;2022-10-16T17:59:45;24.32;;;8.35;;
24799;SDS011;12897;50.812;4.430;2022-10-16T18:02:19;28.50;;;6.55;;
24799;SDS011;12897;50.812;4.430;2022-10-16T18:04:53;21.97;;;5.95;;